CYDP/YDP METAR and TAF weather

Enter ICAO airport designator
Station Type Date Time Source
CYDP METAR 2020/01/18 00:00 UTC NOAA

CYDP 180000Z 28020G31KT 15SM SKC M24/M30 A3008 RMK G42 PAST HR LAST STAFFED OB/ NEXT 180900 PRESRR SLP189


Station Type Date Time Source
CYDP Decoded METAR 2020/01/18 00:00 UTC NOAA

Nain, Nfld, Canada (CYDP) 56-33N 061-41W 7M
Jan 17, 2020 - 07:00 PM EST / 2020.01.18 0000 UTC
Wind: from the W (280 degrees) at 23 MPH (20 KT) gusting to 36 MPH (31 KT):0
Visibility: 15 mile(s):0
Sky conditions: clear
Temperature: -11 F (-24 C)
Windchill: -38 F (-39 C):2
Dew Point: -22 F (-30 C)
Relative Humidity: 57%
Pressure (altimeter): 30.08 in. Hg (1018 hPa)
Pressure tendency: rising rapidly
ob: CYDP 180000Z 28020G31KT 15SM SKC M24/M30 A3008 RMK G42 PAST HR LAST STAFFED OB/ NEXT 180900 PRESRR SLP189
cycle: 0

Station Type Date Time Source
CYDP TAF 2020/01/17 20:00 UTC NOAA

TAF CYDP 171938Z 1720/1724 28015G25KT P6SM FEW120
BECMG 1720/1722 29020G35KT
RMK NXT FCST WILL BE ISSUED AT 181045Z

Example: see airport list